createdAt,value
2022-08-11T00:06:10.141Z,1.80
2022-08-11T00:08:38.588Z,2.13
2022-08-11T00:11:08.579Z,2.20
2022-08-11T00:13:38.211Z,2.15
2022-08-11T00:16:13.494Z,2.67
2022-08-11T00:18:43.546Z,1.80
2022-08-11T00:21:13.464Z,2.47
2022-08-11T00:28:48.108Z,2.35
2022-08-11T00:31:24.515Z,2.28
2022-08-11T00:33:52.853Z,2.22
2022-08-11T00:36:26.225Z,2.20
2022-08-11T00:38:55.871Z,2.33
2022-08-11T00:41:34.925Z,1.92
2022-08-11T00:44:28.859Z,2.17
2022-08-11T00:52:13.719Z,1.60
2022-08-11T00:55:10.794Z,1.85
2022-08-11T00:58:07.063Z,1.90
2022-08-11T01:00:58.263Z,2.22
2022-08-11T01:03:47.196Z,1.95
2022-08-11T01:14:40.083Z,2.08
2022-08-11T01:17:58.542Z,2.33
2022-08-11T01:20:58.678Z,1.52
2022-08-11T01:24:04.555Z,2.13
2022-08-11T01:27:19.305Z,2.92
2022-08-11T01:38:43.180Z,1.90
2022-08-11T01:41:47.144Z,2.38
2022-08-11T01:47:52.382Z,2.17
2022-08-11T01:50:38.095Z,1.85
2022-08-11T01:53:16.160Z,2.92
2022-08-11T02:00:55.221Z,2.13
2022-08-11T02:03:37.038Z,2.03
2022-08-11T02:06:29.598Z,2.25
2022-08-11T02:09:08.986Z,2.38
2022-08-11T02:11:39.122Z,2.28
2022-08-11T02:14:20.245Z,2.17
2022-08-11T02:20:12.716Z,2.10
2022-08-11T02:23:09.999Z,1.70
2022-08-11T02:25:45.759Z,2.00
2022-08-11T02:28:23.441Z,2.28
2022-08-11T02:32:08.354Z,2.80
2022-08-11T02:34:18.312Z,2.35
2022-08-11T02:42:34.860Z,2.60
2022-08-11T02:45:16.861Z,2.53
2022-08-11T02:48:09.026Z,2.05
2022-08-11T02:50:42.544Z,2.55
2022-08-11T02:53:14.909Z,2.25
2022-08-11T02:55:57.612Z,2.15
2022-08-11T03:03:37.806Z,2.03
2022-08-11T03:06:12.721Z,2.47
2022-08-11T03:08:52.159Z,3.45
2022-08-11T03:11:57.390Z,1.98
2022-08-11T03:14:49.273Z,2.42
2022-08-11T03:17:30.805Z,1.88
2022-08-11T03:25:02.907Z,2.17
2022-08-11T03:27:41.648Z,2.08
2022-08-11T03:30:16.067Z,1.80
2022-08-11T03:33:16.008Z,2.17
2022-08-11T03:35:54.707Z,2.35
2022-08-11T03:38:30.475Z,1.95
2022-08-11T03:47:09.219Z,2.55
2022-08-11T03:49:46.221Z,1.85
2022-08-11T03:52:21.770Z,2.28
2022-08-11T03:55:01.414Z,2.70
2022-08-11T03:58:02.790Z,2.90
2022-08-11T04:00:54.652Z,2.90
2022-08-11T04:08:08.689Z,2.30
2022-08-11T04:11:24.688Z,2.70
2022-08-11T04:14:50.264Z,3.10
2022-08-11T04:17:51.037Z,3.05
2022-08-11T04:20:53.353Z,3.70
2022-08-11T04:28:50.309Z,3.80
2022-08-11T04:31:44.315Z,3.03
2022-08-11T04:35:06.685Z,3.47
2022-08-11T04:37:53.357Z,3.38
2022-08-11T04:40:50.833Z,3.67
2022-08-11T04:44:02.781Z,3.42
2022-08-11T04:52:20.648Z,3.13
2022-08-11T04:55:24.766Z,3.65
2022-08-11T04:58:34.959Z,3.78
2022-08-11T05:01:41.055Z,4.20
2022-08-11T05:04:51.288Z,4.22
2022-08-11T05:12:35.677Z,3.42
2022-08-11T05:15:22.718Z,3.80
2022-08-11T05:18:16.491Z,3.28
2022-08-11T05:21:09.238Z,3.47
2022-08-11T05:23:59.720Z,3.83
2022-08-11T05:26:49.651Z,4.03
2022-08-11T05:34:54.325Z,3.65
2022-08-11T05:37:32.391Z,3.67
2022-08-11T05:40:24.589Z,3.40
2022-08-11T05:43:15.599Z,3.33
2022-08-11T05:46:04.562Z,3.25
2022-08-11T05:48:53.803Z,4.10
2022-08-11T05:54:35.027Z,4.45
2022-08-11T05:57:05.058Z,3.63
2022-08-11T05:59:33.945Z,3.60
2022-08-11T06:02:04.123Z,3.42
2022-08-11T06:04:32.621Z,3.55
2022-08-11T06:07:02.444Z,4.03
2022-08-11T06:12:21.800Z,4.35
2022-08-11T06:14:53.967Z,4.63
2022-08-11T06:17:25.198Z,3.93
2022-08-11T06:20:04.202Z,4.07
2022-08-11T06:22:35.780Z,4.20
2022-08-11T06:25:05.647Z,4.03
2022-08-11T06:27:37.956Z,3.60
2022-08-11T06:32:57.200Z,4.05
2022-08-11T06:35:37.946Z,3.72
2022-08-11T06:38:10.552Z,4.20
2022-08-11T06:41:08.500Z,3.70
2022-08-11T06:43:55.240Z,4.32
2022-08-11T06:46:29.316Z,5.00
2022-08-11T06:51:56.781Z,4.00
2022-08-11T06:54:32.733Z,3.97
2022-08-11T06:57:35.451Z,4.07
2022-08-11T07:00:24.210Z,4.07
2022-08-11T07:02:55.789Z,3.30
2022-08-11T07:05:28.349Z,4.78
2022-08-11T07:15:00.279Z,4.45
2022-08-11T07:18:26.958Z,3.97
2022-08-11T07:21:43.100Z,4.10
2022-08-11T07:25:01.503Z,4.43
2022-08-11T07:27:55.612Z,4.00
2022-08-11T07:30:26.415Z,3.25
2022-08-11T07:38:03.487Z,4.53
2022-08-11T07:40:34.504Z,4.60
2022-08-11T07:43:03.732Z,3.15
2022-08-11T07:45:50.309Z,4.35
2022-08-11T07:48:38.074Z,3.90
2022-08-11T07:51:24.316Z,4.00
2022-08-11T07:53:58.317Z,4.22
2022-08-11T08:00:04.062Z,4.75
2022-08-11T08:02:43.417Z,4.30
2022-08-11T08:05:29.235Z,4.93
2022-08-11T08:08:14.895Z,4.70
2022-08-11T08:11:03.336Z,3.63
2022-08-11T08:13:51.918Z,4.82
2022-08-11T08:21:36.037Z,4.22
2022-08-11T08:24:04.358Z,4.18
2022-08-11T08:26:51.989Z,3.63
2022-08-11T08:29:38.898Z,4.28
2022-08-11T08:32:08.211Z,3.75
2022-08-11T08:34:37.104Z,3.92
2022-08-11T08:37:15.846Z,4.15
2022-08-11T08:45:05.419Z,3.72
2022-08-11T08:47:42.399Z,3.75
2022-08-11T08:50:16.948Z,3.72
2022-08-11T08:52:50.868Z,3.95
2022-08-11T08:55:20.070Z,3.47
2022-08-11T08:57:50.900Z,3.53
2022-08-11T09:00:23.637Z,3.53
2022-08-11T09:05:30.122Z,3.85
2022-08-11T09:07:58.212Z,3.92
2022-08-11T09:10:26.705Z,4.15
2022-08-11T09:12:55.060Z,3.75
2022-08-11T09:15:25.703Z,4.07
2022-08-11T09:18:03.222Z,3.70
2022-08-11T09:20:35.019Z,3.08
2022-08-11T09:28:13.187Z,2.90
2022-08-11T09:30:42.639Z,2.92
2022-08-11T09:33:12.490Z,2.45
2022-08-11T09:35:43.075Z,2.53
2022-08-11T09:38:31.254Z,2.63
2022-08-11T09:41:00.158Z,2.30
2022-08-11T09:46:41.098Z,2.75
2022-08-11T09:49:09.275Z,2.67
2022-08-11T09:51:37.438Z,2.83
2022-08-11T09:54:09.053Z,2.67
2022-08-11T09:57:09.337Z,2.72
2022-08-11T09:59:37.419Z,2.75
2022-08-11T10:05:44.645Z,2.80
2022-08-11T10:08:14.163Z,3.55
2022-08-11T10:10:42.150Z,3.30
2022-08-11T10:14:04.902Z,3.33
2022-08-11T10:16:15.426Z,3.33
2022-08-11T10:18:51.882Z,3.10
2022-08-11T10:25:40.677Z,3.10
2022-08-11T10:28:28.200Z,2.70
2022-08-11T10:31:17.467Z,2.50
2022-08-11T10:34:01.739Z,2.58
2022-08-11T10:36:32.157Z,2.42
2022-08-11T10:39:01.599Z,2.10
2022-08-11T10:47:11.368Z,2.00
2022-08-11T10:49:40.132Z,1.75
2022-08-11T10:52:25.710Z,2.33
2022-08-11T10:55:11.528Z,1.75
2022-08-11T10:58:04.620Z,1.75
2022-08-11T11:00:34.621Z,2.05
2022-08-11T11:08:31.973Z,1.48
2022-08-11T11:11:01.496Z,1.25
2022-08-11T11:13:55.345Z,1.38
2022-08-11T11:16:42.402Z,1.25
2022-08-11T11:19:12.709Z,1.30
2022-08-11T11:21:42.325Z,1.67
2022-08-11T11:30:01.343Z,1.50
2022-08-11T11:32:42.810Z,1.50
2022-08-11T11:35:26.117Z,1.40
2022-08-11T11:38:03.765Z,1.50
2022-08-11T11:40:33.715Z,1.30
2022-08-11T11:43:01.895Z,1.35
2022-08-11T11:50:37.017Z,1.50
2022-08-11T11:55:35.412Z,1.60
2022-08-11T11:58:23.413Z,1.60
2022-08-11T12:01:11.762Z,1.63
2022-08-11T12:03:40.549Z,1.40
2022-08-11T12:09:05.979Z,1.85
2022-08-11T12:11:52.143Z,2.17
2022-08-11T12:14:21.302Z,1.60
2022-08-11T12:16:49.622Z,1.40
2022-08-11T12:19:20.949Z,1.70
2022-08-11T12:22:07.195Z,1.80
2022-08-11T12:27:25.335Z,1.48
2022-08-11T12:29:57.145Z,1.58
2022-08-11T12:32:27.795Z,1.58
2022-08-11T12:34:56.884Z,1.60
2022-08-11T12:37:30.421Z,2.10
2022-08-11T12:40:49.502Z,1.77
2022-08-11T12:49:00.577Z,1.30
2022-08-11T12:52:11.272Z,1.40
2022-08-11T12:54:46.251Z,1.40
2022-08-11T12:57:37.218Z,1.65
2022-08-11T13:00:24.898Z,1.45
2022-08-11T13:03:12.193Z,1.50
2022-08-11T13:11:08.862Z,1.55
2022-08-11T13:13:54.907Z,1.30
2022-08-11T13:16:28.106Z,1.55
2022-08-11T13:18:57.619Z,1.30
2022-08-11T13:21:26.900Z,1.30
2022-08-11T13:23:59.520Z,1.45
2022-08-11T13:29:28.909Z,1.48
2022-08-11T13:31:59.205Z,1.30
2022-08-11T13:34:30.526Z,1.30
2022-08-11T13:37:00.190Z,1.60
2022-08-11T13:39:30.379Z,1.20
2022-08-11T13:42:00.464Z,1.60
2022-08-11T13:44:31.773Z,1.40
2022-08-11T13:51:59.325Z,1.60
2022-08-11T13:54:30.158Z,1.20
2022-08-11T13:57:01.967Z,1.38
2022-08-11T13:59:30.786Z,1.30
2022-08-11T14:02:28.638Z,1.38
2022-08-11T14:04:55.409Z,1.17
2022-08-11T14:07:28.757Z,1.60
2022-08-11T14:13:01.629Z,1.30
2022-08-11T14:15:33.141Z,1.40
2022-08-11T14:18:05.448Z,1.40
2022-08-11T14:20:50.200Z,1.75
2022-08-11T14:23:19.982Z,1.92
2022-08-11T14:26:06.602Z,2.08
2022-08-11T14:31:47.296Z,1.60
2022-08-11T14:34:18.358Z,1.80
2022-08-11T14:36:50.639Z,1.85
2022-08-11T14:39:22.642Z,2.00
2022-08-11T14:42:13.367Z,1.88
2022-08-11T14:45:02.176Z,2.03
2022-08-11T14:50:15.687Z,2.05
2022-08-11T14:52:50.633Z,2.10
2022-08-11T14:55:38.124Z,2.10
2022-08-11T14:58:08.799Z,1.98
2022-08-11T15:00:37.434Z,1.98
2022-08-11T15:03:12.419Z,2.45
2022-08-11T15:12:32.662Z,1.80
2022-08-11T15:15:19.985Z,2.30
2022-08-11T15:17:50.364Z,2.13
2022-08-11T15:20:38.137Z,2.20
2022-08-11T15:23:24.057Z,2.20
2022-08-11T15:25:56.790Z,2.30
2022-08-11T15:34:09.349Z,2.13
2022-08-11T15:36:56.050Z,1.98
2022-08-11T15:39:28.995Z,2.30
2022-08-11T15:45:10.188Z,2.00
2022-08-11T15:47:41.644Z,2.00
2022-08-11T15:53:12.357Z,1.95
2022-08-11T15:55:41.215Z,1.88
2022-08-11T15:58:30.342Z,2.40
2022-08-11T16:01:18.153Z,2.00
2022-08-11T16:04:09.395Z,2.08
2022-08-11T16:06:49.328Z,2.28
2022-08-11T16:12:09.961Z,1.70
2022-08-11T16:15:00.327Z,2.88
2022-08-11T16:17:34.559Z,2.35
2022-08-11T16:20:03.937Z,1.80
2022-08-11T16:22:39.483Z,2.25
2022-08-11T16:27:03.157Z,2.40
2022-08-11T16:33:48.773Z,2.45
2022-08-11T16:36:25.833Z,2.17
2022-08-11T16:38:54.955Z,2.25
2022-08-11T16:41:43.833Z,2.20
2022-08-11T16:44:32.764Z,2.15
2022-08-11T16:47:08.189Z,2.20
2022-08-11T16:54:40.791Z,2.28
2022-08-11T16:57:34.090Z,2.35
2022-08-11T17:00:05.697Z,2.63
2022-08-11T17:02:55.235Z,2.08
2022-08-11T17:05:54.399Z,2.20
2022-08-11T17:08:48.444Z,2.40
2022-08-11T17:14:15.038Z,2.50
2022-08-11T17:16:45.843Z,2.00
2022-08-11T17:19:16.464Z,2.38
2022-08-11T17:22:01.590Z,2.05
2022-08-11T17:24:31.644Z,2.65
2022-08-11T17:27:00.896Z,2.30
2022-08-11T17:33:26.795Z,2.78
2022-08-11T17:35:54.783Z,2.47
2022-08-11T17:38:24.764Z,2.00
2022-08-11T17:41:18.530Z,2.40
2022-08-11T17:44:11.754Z,2.40
2022-08-11T17:47:05.199Z,2.42
2022-08-11T17:54:57.448Z,2.10
2022-08-11T17:57:47.516Z,2.45
2022-08-11T18:00:17.034Z,2.28
2022-08-11T18:03:04.305Z,2.35
2022-08-11T18:05:35.025Z,1.98
2022-08-11T18:08:25.027Z,2.22
2022-08-11T18:11:24.366Z,2.08
2022-08-11T18:17:13.220Z,2.30
2022-08-11T18:19:59.217Z,1.98
2022-08-11T18:22:48.016Z,1.98
2022-08-11T18:25:40.830Z,1.95
2022-08-11T18:28:34.671Z,2.20
2022-08-11T18:31:23.550Z,2.50
2022-08-11T18:38:28.827Z,2.42
2022-08-11T18:41:21.199Z,2.60
2022-08-11T18:44:09.466Z,2.38
2022-08-11T18:47:00.741Z,2.17
2022-08-11T18:50:02.650Z,2.17
2022-08-11T18:55:52.997Z,2.67
2022-08-11T18:58:44.791Z,1.90
2022-08-11T19:01:32.649Z,2.03
2022-08-11T19:04:20.194Z,2.38
2022-08-11T19:07:08.785Z,2.75
2022-08-11T19:09:58.758Z,2.35
2022-08-11T19:16:56.176Z,2.35
2022-08-11T19:19:47.300Z,1.98
2022-08-11T19:22:36.141Z,2.45
2022-08-11T19:25:25.802Z,2.22
2022-08-11T19:28:13.502Z,2.13
2022-08-11T19:30:59.377Z,2.10
2022-08-11T19:39:03.269Z,2.60
2022-08-11T19:41:56.926Z,2.17
2022-08-11T19:44:44.982Z,2.45
2022-08-11T19:47:32.263Z,2.00
2022-08-11T19:50:24.113Z,2.53
2022-08-11T19:53:17.201Z,2.10
2022-08-11T20:01:14.287Z,2.40
2022-08-11T20:03:59.859Z,2.50
2022-08-11T20:06:46.743Z,2.17
2022-08-11T20:10:00.920Z,2.47
2022-08-11T20:12:40.492Z,2.95
2022-08-11T20:15:28.590Z,2.40
2022-08-11T20:23:35.293Z,3.20
2022-08-11T20:26:30.841Z,2.63
2022-08-11T20:29:18.695Z,2.47
2022-08-11T20:32:06.646Z,2.25
2022-08-11T20:34:57.490Z,2.70
2022-08-11T20:37:47.649Z,2.50
2022-08-11T20:46:00.009Z,2.88
2022-08-11T20:48:47.066Z,2.22
2022-08-11T20:51:33.891Z,2.60
2022-08-11T20:54:41.942Z,2.40
2022-08-11T20:57:45.744Z,2.53
2022-08-11T21:00:38.896Z,2.75
2022-08-11T21:08:53.645Z,2.17
2022-08-11T21:11:40.944Z,2.45
2022-08-11T21:14:32.015Z,2.55
2022-08-11T21:17:26.850Z,2.65
2022-08-11T21:20:22.345Z,2.22
2022-08-11T21:23:19.931Z,3.03
2022-08-11T21:31:30.845Z,2.90
2022-08-11T21:34:17.089Z,2.70
2022-08-11T21:37:03.730Z,2.30
2022-08-11T21:39:51.594Z,2.45
2022-08-11T21:42:39.026Z,2.67
2022-08-11T21:45:26.811Z,2.53
2022-08-11T21:54:07.425Z,2.30
2022-08-11T21:56:54.585Z,2.58
2022-08-11T21:59:49.724Z,2.40
2022-08-11T22:02:36.828Z,2.17
2022-08-11T22:05:23.088Z,2.22
2022-08-11T22:08:09.395Z,2.40
2022-08-11T22:16:18.215Z,2.60
2022-08-11T22:19:04.515Z,2.33
2022-08-11T22:22:02.808Z,2.65
2022-08-11T22:24:52.768Z,2.65
2022-08-11T22:27:39.595Z,2.25
2022-08-11T22:30:28.250Z,2.22
2022-08-11T22:36:01.281Z,2.42
2022-08-11T22:38:47.522Z,2.22
2022-08-11T22:41:33.790Z,2.38
2022-08-11T22:44:19.359Z,2.65
2022-08-11T22:47:05.163Z,2.50
2022-08-11T22:49:58.140Z,2.30
2022-08-11T22:58:06.234Z,2.33
2022-08-11T23:00:51.777Z,2.78
2022-08-11T23:03:38.678Z,2.42
2022-08-11T23:06:25.227Z,2.25
2022-08-11T23:09:11.291Z,2.50
2022-08-11T23:12:07.193Z,2.83
2022-08-11T23:20:35.031Z,2.38
2022-08-11T23:23:25.105Z,2.65
2022-08-11T23:26:12.827Z,2.10
2022-08-11T23:28:59.371Z,2.83
2022-08-11T23:31:53.090Z,2.40
2022-08-11T23:35:04.413Z,2.47
2022-08-11T23:40:49.805Z,2.85
2022-08-11T23:43:38.778Z,2.70
2022-08-11T23:46:24.447Z,2.40
2022-08-11T23:49:13.664Z,2.53
2022-08-11T23:52:00.578Z,2.15
2022-08-11T23:54:47.094Z,2.70
